Time;durP1;ratioP1;P1;durP2;ratioP2;P2;SDS_P1;SDS_P2;PMS_P1;PMS_P2;Temp;Humidity;BMP_temperature;BMP_pressure;BME280_temperature;BME280_humidity;BME280_pressure;Samples;Min_cycle;Max_cycle;Signal;HPM_P1;HPM_P2
2022/04/01 00:02:16;;;;;;;;;;;;;;;20.54;37.79;99128.96;104296;1314;61192;-84
2022/04/01 00:05:01;;;;;;;;;;;;;;;20.53;37.60;99131.46;104256;1314;61338;-83
2022/04/01 00:07:59;;;;;;;;;;;;;;;;;;;;;
2022/04/01 00:10:27;;;;;;;;;;;;;;;20.53;37.97;99136.15;104766;1303;75703;-84
2022/04/01 00:13:17;;;;;;;;;;;;;;;20.53;37.73;99137.39;104713;1305;61656;-83
2022/04/01 00:15:43;;;;;;;;;;;;;;;20.53;37.78;99131.52;104539;1307;61269;-84
2022/04/01 00:18:29;;;;;;;;;;;;;;;20.53;37.73;99119.90;104715;1305;71577;-86
2022/04/01 00:21:09;;;;;;;;;;;;;;;20.53;37.97;99126.91;104652;1305;74812;-84
2022/04/01 00:24:14;;;;;;;;;;;;;;;20.53;37.77;99136.52;104277;1312;61152;-87
2022/04/01 00:26:46;;;;;;;;;;;;;;;20.53;37.79;99128.51;104636;1313;60404;-83
2022/04/01 00:29:15;;;;;;;;;;;;;;;20.53;37.94;99123.48;104600;1312;72707;-83
2022/04/01 00:31:59;;;;;;;;;;;;;;;;;;;;;
2022/04/01 00:34:52;;;;;;;;;;;;;;;20.53;37.88;99126.51;104252;1313;61231;-86
2022/04/01 00:38:24;;;;;;;;;;;;;;;20.53;37.75;99139.38;104227;1312;61536;-84
2022/04/01 00:40:41;;;;;;;;;;;;;;;;;;;;;
2022/04/01 00:43:08;;;;;;;;;;;;;;;20.53;37.85;99144.70;103547;1318;74774;-84
2022/04/01 00:45:43;;;;;;;;;;;;;;;20.53;37.85;99144.00;103536;1319;60152;-83
2022/04/01 00:48:24;;;;;;;;;;;;;;;20.53;37.76;99138.83;103674;1317;62479;-84
2022/04/01 00:51:19;;;;;;;;;;;;;;;20.53;37.89;99140.65;103650;1319;73865;-84
2022/04/01 00:54:28;;;;;;;;;;;;;;;20.53;37.78;99135.65;103869;1316;74777;-86
2022/04/01 00:57:04;;;;;;;;;;;;;;;20.53;37.80;99129.55;103858;1317;61223;-83
2022/04/01 01:00:04;;;;;;;;;;;;;;;20.53;37.87;99120.10;103841;1317;61591;-83
2022/04/01 01:02:45;;;;;;;;;;;;;;;;;;;;;
2022/04/01 01:05:37;;;;;;;;;;;;;;;;;;;;;
2022/04/01 01:08:29;;;;;;;;;;;;;;;20.53;37.85;99135.32;104208;1315;61265;-86
2022/04/01 01:10:58;;;;;;;;;;;;;;;20.53;37.93;99141.75;104247;1313;61358;-85
2022/04/01 01:13:32;;;;;;;;;;;;;;;20.53;37.98;99144.26;104197;1314;72921;-79
2022/04/01 01:16:19;;;;;;;;;;;;;;;20.52;37.83;99135.52;104209;1314;74783;-82
2022/04/01 01:19:21;;;;;;;;;;;;;;;20.52;38.02;99131.59;104657;1305;61530;-84
2022/04/01 01:22:14;;;;;;;;;;;;;;;20.52;37.95;99139.30;104657;1306;61192;-82
2022/04/01 01:24:47;;;;;;;;;;;;;;;20.52;37.91;99147.38;104804;1305;72744;-81
2022/04/01 01:27:16;;;;;;;;;;;;;;;20.52;37.99;99147.17;104799;1305;74729;-81
2022/04/01 01:30:04;;;;;;;;;;;;;;;;;;;;;
2022/04/01 01:32:45;;;;;;;;;;;;;;;20.51;38.05;99142.94;104816;1305;61466;-85
2022/04/01 01:35:15;;;;;;;;;;;;;;;20.51;37.90;99137.95;104674;1305;72999;-87
2022/04/01 01:37:53;;;;;;;;;;;;;;;20.51;37.91;99127.79;104701;1305;74697;-85
2022/04/01 01:40:28;;;;;;;;;;;;;;;20.52;37.69;99127.02;104682;1305;61180;-81
2022/04/01 01:43:00;;;;;;;;;;;;;;;20.51;37.93;99122.59;104661;1305;61160;-82
2022/04/01 01:45:30;;;;;;;;;;;;;;;20.51;38.02;99119.94;104815;1305;73613;-83
2022/04/01 01:48:13;;;;;;;;;;;;;;;20.51;37.86;99114.94;104586;1305;75730;-81
2022/04/01 01:56:48;;;;;;;;;;;;;;;20.50;38.02;99125.06;104823;1305;72911;-82
2022/04/01 01:59:17;;;;;;;;;;;;;;;20.50;38.00;99121.10;104797;1304;74836;-83
2022/04/01 02:01:50;;;;;;;;;;;;;;;20.50;38.02;99125.39;104696;1305;61205;-83
2022/04/01 02:04:22;;;;;;;;;;;;;;;20.50;37.92;99129.15;104724;1305;61685;-82
2022/04/01 02:07:25;;;;;;;;;;;;;;;20.50;37.99;99120.94;104730;1306;74159;-83
2022/04/01 02:09:54;;;;;;;;;;;;;;;20.49;38.04;99119.35;104659;1306;76168;-84
2022/04/01 02:12:26;;;;;;;;;;;;;;;20.50;37.97;99121.23;104717;1305;61306;-82
2022/04/01 02:15:28;;;;;;;;;;;;;;;20.50;38.00;99109.17;104903;1305;61148;-83
2022/04/01 02:18:06;;;;;;;;;;;;;;;;;;;;;
2022/04/01 02:20:39;;;;;;;;;;;;;;;20.49;37.92;99101.48;104496;1305;76164;-82
2022/04/01 02:23:17;;;;;;;;;;;;;;;20.49;38.12;99095.77;104816;1305;61166;-83
2022/04/01 02:26:02;;;;;;;;;;;;;;;20.49;38.06;99096.66;104696;1305;61177;-83
2022/04/01 02:28:35;;;;;;;;;;;;;;;20.50;38.13;99098.77;104671;1306;72921;-87
2022/04/01 02:31:04;;;;;;;;;;;;;;;20.50;38.08;99103.38;104815;1305;74557;-84
2022/04/01 02:33:51;;;;;;;;;;;;;;;;;;;;;
2022/04/01 02:36:26;;;;;;;;;;;;;;;20.50;38.06;99106.45;104932;1305;61262;-84
2022/04/01 02:39:04;;;;;;;;;;;;;;;20.50;37.92;99100.94;104714;1306;61295;-83
2022/04/01 02:41:35;;;;;;;;;;;;;;;20.50;38.12;99095.73;104837;1305;74670;-83
2022/04/01 02:44:12;;;;;;;;;;;;;;;20.49;38.12;99088.83;104693;1305;61186;-86
2022/04/01 02:46:42;;;;;;;;;;;;;;;20.49;38.09;99082.39;104657;1306;61197;-85
2022/04/01 02:49:32;;;;;;;;;;;;;;;;;;;;;
2022/04/01 02:52:07;;;;;;;;;;;;;;;20.49;38.10;99067.71;104755;1304;76116;-82
2022/04/01 02:54:55;;;;;;;;;;;;;;;20.49;38.08;99065.23;104783;1305;62041;-85
2022/04/01 02:57:31;;;;;;;;;;;;;;;20.49;38.19;99062.02;104867;1305;61492;-81
2022/04/01 02:59:56;;;;;;;;;;;;;;;20.49;38.04;99058.06;104519;1306;72030;-82
2022/04/01 03:02:51;;;;;;;;;;;;;;;20.49;37.99;99060.41;104633;1305;73620;-84
2022/04/01 03:05:22;;;;;;;;;;;;;;;20.49;37.93;99061.45;104624;1305;61392;-87
2022/04/01 03:07:48;;;;;;;;;;;;;;;20.49;38.05;99059.20;104615;1306;61607;-80
2022/04/01 03:10:33;;;;;;;;;;;;;;;20.49;37.93;99056.15;104576;1306;72771;-82
2022/04/01 03:12:59;;;;;;;;;;;;;;;20.49;38.07;99061.84;104560;1306;74835;-83
2022/04/01 03:15:55;;;;;;;;;;;;;;;20.49;37.91;99066.68;104715;1305;61291;-85
2022/04/01 03:18:24;;;;;;;;;;;;;;;20.49;38.06;99074.32;104178;1311;61226;-81
2022/04/01 03:20:49;;;;;;;;;;;;;;;20.49;38.09;99074.85;104108;1311;61347;-82
2022/04/01 03:23:36;;;;;;;;;;;;;;;20.49;37.88;99073.48;104104;1311;62436;-81
2022/04/01 03:26:02;;;;;;;;;;;;;;;20.49;38.05;99068.29;104131;1313;61249;-83
2022/04/01 03:28:46;;;;;;;;;;;;;;;20.50;38.10;99075.21;104286;1311;61409;-79
2022/04/01 03:31:20;;;;;;;;;;;;;;;20.50;38.04;99077.34;104312;1312;72883;-84
2022/04/01 03:33:57;;;;;;;;;;;;;;;;;;;;;
2022/04/01 03:36:25;;;;;;;;;;;;;;;20.50;37.87;99079.28;104257;1311;61412;-82
2022/04/01 03:39:14;;;;;;;;;;;;;;;20.50;38.01;99076.11;104210;1311;61394;-82
2022/04/01 03:42:06;;;;;;;;;;;;;;;20.50;38.00;99075.40;103504;1319;72188;-84
2022/04/01 03:44:50;;;;;;;;;;;;;;;20.49;37.99;99073.98;103562;1319;74862;-81
2022/04/01 03:47:27;;;;;;;;;;;;;;;20.50;37.95;99078.41;103381;1320;61326;-84
2022/04/01 03:50:12;;;;;;;;;;;;;;;20.49;38.00;99082.02;103375;1320;61550;-83
2022/04/01 03:52:58;;;;;;;;;;;;;;;20.49;37.99;99088.99;103357;1319;72892;-85
2022/04/01 03:55:48;;;;;;;;;;;;;;;20.48;38.06;99094.30;102889;1320;74993;-85
2022/04/01 03:58:34;;;;;;;;;;;;;;;20.46;38.08;99097.55;103570;1319;61320;-82
2022/04/01 04:01:09;;;;;;;;;;;;;;;20.43;38.15;99106.37;103260;1320;61450;-83
2022/04/01 04:03:51;;;;;;;;;;;;;;;;;;;;;
2022/04/01 04:06:29;;;;;;;;;;;;;;;20.38;38.33;99099.16;103359;1320;76082;-82
2022/04/01 04:09:08;;;;;;;;;;;;;;;20.35;38.31;99096.24;103477;1319;61718;-85
2022/04/01 04:11:37;;;;;;;;;;;;;;;20.32;38.36;99094.21;103447;1319;61642;-84
2022/04/01 04:14:03;;;;;;;;;;;;;;;20.30;38.26;99097.51;103500;1319;71844;-83
2022/04/01 04:17:16;;;;;;;;;;;;;;;20.27;38.21;99093.79;103245;1320;75174;-82
2022/04/01 04:20:01;;;;;;;;;;;;;;;20.26;38.27;99097.29;103182;1319;61132;-82
2022/04/01 04:22:56;;;;;;;;;;;;;;;20.24;38.27;99100.09;103406;1319;61385;-82
2022/04/01 04:25:43;;;;;;;;;;;;;;;;;;;;;
2022/04/01 04:28:21;;;;;;;;;;;;;;;;;;;;;
2022/04/01 04:31:00;;;;;;;;;;;;;;;20.20;38.12;99089.04;103335;1320;61144;-82
2022/04/01 04:33:32;;;;;;;;;;;;;;;20.20;38.20;99089.63;103921;1313;61350;-85
2022/04/01 04:36:20;;;;;;;;;;;;;;;20.20;37.99;99091.42;104185;1296;72709;-79
2022/04/01 04:38:55;;;;;;;;;;;;;;;20.19;37.84;99096.17;104385;1305;76161;-82
2022/04/01 04:41:20;;;;;;;;;;;;;;;20.18;37.98;99098.71;104630;1303;61186;-79
2022/04/01 04:43:59;;;;;;;;;;;;;;;20.17;38.23;99095.61;104394;1303;61834;-80
2022/04/01 04:46:26;;;;;;;;;;;;;;;20.15;38.21;99103.29;104406;1303;71656;-80
2022/04/01 04:49:03;;;;;;;;;;;;;;;20.14;38.12;99110.71;104216;1303;61419;-80
2022/04/01 04:51:31;;;;;;;;;;;;;;;20.15;37.91;99119.56;104340;1304;61552;-81
2022/04/01 04:54:01;;;;;;;;;;;;;;;20.16;38.01;99112.90;104005;1303;61178;-80
2022/04/01 04:56:26;;;;;;;;;;;;;;;20.16;37.71;99105.52;104062;1305;61827;-80
2022/04/01 04:59:08;;;;;;;;;;;;;;;20.15;37.85;99099.05;103936;1303;75603;-80
2022/04/01 05:01:39;;;;;;;;;;;;;;;20.14;37.88;99093.42;103914;1305;61334;-80
2022/04/01 05:04:13;;;;;;;;;;;;;;;20.13;37.78;99094.05;103820;1305;61165;-79
2022/04/01 05:06:43;;;;;;;;;;;;;;;20.13;38.02;99100.07;103932;1305;72892;-82
2022/04/01 05:09:20;;;;;;;;;;;;;;;20.14;38.09;99110.73;104055;1305;74704;-80
2022/04/01 05:12:07;;;;;;;;;;;;;;;20.15;38.05;99113.87;104180;1305;61580;-80
2022/04/01 05:14:44;;;;;;;;;;;;;;;20.15;38.03;99117.98;104303;1305;61511;-80
2022/04/01 05:17:14;;;;;;;;;;;;;;;20.15;37.93;99118.30;103857;1306;73064;-80
2022/04/01 05:19:40;;;;;;;;;;;;;;;20.16;38.01;99111.46;103673;1306;74702;-80
2022/04/01 05:22:10;;;;;;;;;;;;;;;20.16;38.01;99102.52;103885;1306;61279;-80
2022/04/01 05:24:51;;;;;;;;;;;;;;;;;;;;;
2022/04/01 05:27:28;;;;;;;;;;;;;;;20.16;38.01;99095.30;104189;1306;72928;-80
2022/04/01 05:30:13;;;;;;;;;;;;;;;20.17;37.94;99096.38;104571;1305;74884;-79
2022/04/01 05:32:42;;;;;;;;;;;;;;;20.17;38.01;99100.13;104042;1305;62784;-80
2022/04/01 05:35:08;;;;;;;;;;;;;;;20.17;37.90;99098.86;104287;1306;61316;-80
2022/04/01 05:37:35;;;;;;;;;;;;;;;20.16;37.98;99098.36;103877;1307;61241;-80
2022/04/01 05:40:05;;;;;;;;;;;;;;;20.16;37.93;99098.91;104404;1306;61174;-80
2022/04/01 05:42:32;;;;;;;;;;;;;;;20.15;37.77;99097.94;104158;1305;61396;-80
2022/04/01 05:45:02;;;;;;;;;;;;;;;20.15;38.00;99092.44;103906;1305;61078;-80
2022/04/01 05:47:31;;;;;;;;;;;;;;;20.14;37.82;99081.94;103492;1310;61393;-80
2022/04/01 05:49:57;;;;;;;;;;;;;;;20.14;37.85;99080.20;103332;1309;75942;-79
2022/04/01 05:52:22;;;;;;;;;;;;;;;20.11;37.76;99084.18;103274;1308;61463;-79
2022/04/01 05:54:48;;;;;;;;;;;;;;;20.02;37.95;99086.26;103367;1311;61318;-79
2022/04/01 05:57:15;;;;;;;;;;;;;;;19.94;37.96;99085.02;103415;1310;61485;-79
2022/04/01 05:59:41;;;;;;;;;;;;;;;19.92;37.88;99085.77;103077;1309;61484;-80
2022/04/01 06:02:13;;;;;;;;;;;;;;;19.91;38.09;99078.73;103128;1311;64221;-79
2022/04/01 06:04:45;;;;;;;;;;;;;;;19.91;38.24;99073.92;103195;1310;61134;-80
2022/04/01 06:07:11;;;;;;;;;;;;;;;19.93;38.22;99068.38;103234;1309;73042;-79
2022/04/01 06:09:56;;;;;;;;;;;;;;;19.96;38.06;99067.05;103398;1311;61476;-79
2022/04/01 06:12:28;;;;;;;;;;;;;;;19.98;38.21;99066.11;103617;1308;61338;-80
2022/04/01 06:15:09;;;;;;;;;;;;;;;19.99;38.10;99066.75;103622;1308;63720;-81
2022/04/01 06:17:51;;;;;;;;;;;;;;;20.01;38.17;99066.74;103674;1309;74405;-80
2022/04/01 06:20:17;;;;;;;;;;;;;;;20.03;38.07;99073.51;104025;1305;75160;-80
2022/04/01 06:22:50;;;;;;;;;;;;;;;20.04;38.01;99072.48;103923;1305;62919;-80
2022/04/01 06:25:18;;;;;;;;;;;;;;;20.07;38.04;99068.55;104158;1306;61375;-79
2022/04/01 06:27:45;;;;;;;;;;;;;;;20.08;38.03;99068.91;103866;1305;71656;-80
2022/04/01 06:30:15;;;;;;;;;;;;;;;20.10;38.02;99068.58;103661;1308;74986;-80
2022/04/01 06:32:48;;;;;;;;;;;;;;;20.11;38.12;99073.66;103748;1306;61849;-81
2022/04/01 06:35:20;;;;;;;;;;;;;;;20.11;38.00;99081.33;103971;1305;62623;-82
2022/04/01 06:37:57;;;;;;;;;;;;;;;20.13;37.87;99074.19;103879;1305;71969;-80
2022/04/01 06:40:23;;;;;;;;;;;;;;;20.15;37.95;99075.96;104513;1305;75009;-81
2022/04/01 06:42:50;;;;;;;;;;;;;;;20.15;37.98;99073.15;103812;1305;61173;-79
2022/04/01 06:45:17;;;;;;;;;;;;;;;20.13;37.83;99074.42;105370;1305;61966;-79
2022/04/01 06:47:44;;;;;;;;;;;;;;;20.14;37.95;99074.07;104233;1305;711957;-79
2022/04/01 06:50:16;;;;;;;;;;;;;;;20.17;37.86;99073.08;103696;1305;75299;-79
2022/04/01 06:52:42;;;;;;;;;;;;;;;20.20;37.91;99068.33;105394;1305;61366;-80
2022/04/01 06:55:10;;;;;;;;;;;;;;;20.20;37.74;99062.30;105045;1307;59567;-80
2022/04/01 06:57:36;;;;;;;;;;;;;;;20.17;37.90;99068.30;105040;1308;72701;-80
2022/04/01 07:00:05;;;;;;;;;;;;;;;20.16;38.01;99070.16;105193;1305;59410;-79
2022/04/01 07:02:31;;;;;;;;;;;;;;;20.17;38.12;99066.64;105112;1305;60385;-79
2022/04/01 07:04:57;;;;;;;;;;;;;;;20.20;38.04;99067.97;105181;1305;59847;-79
2022/04/01 07:07:22;;;;;;;;;;;;;;;20.24;38.10;99066.20;105285;1305;60395;-79
2022/04/01 07:09:48;;;;;;;;;;;;;;;20.29;38.28;99070.70;105440;1305;59250;-79
2022/04/01 07:12:13;;;;;;;;;;;;;;;20.33;38.30;99072.64;104397;1305;61237;-80
2022/04/01 07:14:39;;;;;;;;;;;;;;;20.37;38.37;99071.40;104038;1305;60191;-78
2022/04/01 07:17:05;;;;;;;;;;;;;;;20.40;38.41;99068.83;103879;1305;61321;-79
2022/04/01 07:19:31;;;;;;;;;;;;;;;20.41;38.30;99067.24;103983;1305;61381;-80
2022/04/01 07:21:56;;;;;;;;;;;;;;;20.42;38.22;99065.86;103809;1305;61270;-80
2022/04/01 07:24:22;;;;;;;;;;;;;;;20.43;38.10;99063.29;103606;1305;61548;-78
2022/04/01 07:26:48;;;;;;;;;;;;;;;20.45;37.96;99066.17;104006;1305;60151;-79
2022/04/01 07:29:13;;;;;;;;;;;;;;;20.46;38.04;99065.88;104666;1305;61317;-80
2022/04/01 07:34:33;;;;;;;;;;;;;;;20.48;37.86;99065.52;104376;1305;74649;-79
2022/04/01 07:36:59;;;;;;;;;;;;;;;20.49;37.77;99064.19;104188;1305;61593;-80
2022/04/01 07:39:24;;;;;;;;;;;;;;;20.50;37.97;99059.86;104385;1305;61316;-79
2022/04/01 07:41:50;;;;;;;;;;;;;;;20.50;37.60;99056.57;104377;1305;61410;-79
2022/04/01 07:44:18;;;;;;;;;;;;;;;20.50;37.60;99055.47;104233;1308;61379;-81
2022/04/01 07:46:44;;;;;;;;;;;;;;;20.50;37.64;99052.45;104366;1306;74876;-80
2022/04/01 07:49:09;;;;;;;;;;;;;;;20.50;37.67;99048.02;104482;1305;61401;-80
2022/04/01 07:51:35;;;;;;;;;;;;;;;20.50;37.54;99051.61;104601;1305;61295;-80
2022/04/01 07:54:00;;;;;;;;;;;;;;;20.50;37.58;99051.74;105227;1305;60304;-80
2022/04/01 07:56:30;;;;;;;;;;;;;;;20.49;37.55;99052.73;104973;1305;59416;-80
2022/04/01 07:58:59;;;;;;;;;;;;;;;20.48;37.61;99047.30;104593;1305;74031;-80
2022/04/01 08:01:25;;;;;;;;;;;;;;;20.46;37.23;99046.73;104467;1304;61235;-81
2022/04/01 08:03:50;;;;;;;;;;;;;;;20.45;37.35;99041.50;104452;1304;59581;-80
2022/04/01 08:06:16;;;;;;;;;;;;;;;20.46;37.30;99041.24;104425;1306;61369;-82
2022/04/01 08:08:45;;;;;;;;;;;;;;;20.46;37.12;99043.55;104577;1303;59792;-83
2022/04/01 08:11:11;;;;;;;;;;;;;;;20.47;37.24;99044.73;104616;1305;60491;-80
2022/04/01 08:13:36;;;;;;;;;;;;;;;20.48;37.22;99038.72;104245;1305;61262;-80
2022/04/01 08:16:05;;;;;;;;;;;;;;;20.49;37.11;99038.30;104404;1305;61308;-80
2022/04/01 08:18:47;;;;;;;;;;;;;;;20.49;36.89;99041.14;104197;1305;75955;-81
2022/04/01 08:21:14;;;;;;;;;;;;;;;20.50;37.11;99036.56;104193;1305;61412;-81
2022/04/01 08:23:40;;;;;;;;;;;;;;;20.51;36.97;99034.30;104730;1308;61121;-82
2022/04/01 08:26:11;;;;;;;;;;;;;;;20.52;37.12;99035.67;104118;1308;72961;-80
2022/04/01 08:28:37;;;;;;;;;;;;;;;20.52;37.07;99033.15;104501;1305;61141;-80
2022/04/01 08:31:06;;;;;;;;;;;;;;;20.52;36.95;99030.46;104135;1308;62655;-80
2022/04/01 08:33:31;;;;;;;;;;;;;;;20.53;37.11;99034.13;104315;1307;61648;-80
2022/04/01 08:35:59;;;;;;;;;;;;;;;20.54;37.11;99037.98;104579;1305;61317;-81
2022/04/01 08:38:24;;;;;;;;;;;;;;;20.55;37.13;99037.30;104443;1305;75785;-80
2022/04/01 08:40:50;;;;;;;;;;;;;;;20.56;37.11;99030.67;104343;1305;61340;-80
2022/04/01 08:43:26;;;;;;;;;;;;;;;20.57;37.20;99025.56;104321;1306;61186;-80
2022/04/01 08:45:53;;;;;;;;;;;;;;;20.57;37.18;99017.67;104596;1305;73202;-80
2022/04/01 08:48:18;;;;;;;;;;;;;;;20.58;37.16;99022.42;104256;1305;59359;-81
2022/04/01 08:50:46;;;;;;;;;;;;;;;20.60;37.16;99023.81;104459;1305;61212;-79
2022/04/01 08:53:12;;;;;;;;;;;;;;;20.62;37.19;99019.92;104603;1305;60903;-79
2022/04/01 08:55:38;;;;;;;;;;;;;;;20.64;37.27;99007.91;104668;1305;61295;-80
2022/04/01 08:58:04;;;;;;;;;;;;;;;20.66;37.48;98999.43;103877;1306;61455;-79
2022/04/01 09:00:30;;;;;;;;;;;;;;;20.70;37.65;98990.48;104102;1305;61380;-80
2022/04/01 09:03:02;;;;;;;;;;;;;;;20.72;37.78;98981.17;104362;1305;61311;-79
2022/04/01 09:05:27;;;;;;;;;;;;;;;20.72;37.74;98980.86;104199;1305;73021;-80
2022/04/01 09:08:03;;;;;;;;;;;;;;;20.71;37.50;98984.30;104331;1305;61311;-80
2022/04/01 09:10:30;;;;;;;;;;;;;;;20.71;37.35;98979.84;104385;1305;61198;-80
2022/04/01 09:12:56;;;;;;;;;;;;;;;20.72;37.36;98978.70;104215;1305;60681;-80
2022/04/01 09:15:21;;;;;;;;;;;;;;;20.72;37.21;98971.59;104310;1305;61147;-80
2022/04/01 09:17:48;;;;;;;;;;;;;;;20.71;37.19;98965.34;104187;1305;59981;-79
2022/04/01 09:20:14;;;;;;;;;;;;;;;20.72;36.94;98959.80;104046;1308;61398;-79
2022/04/01 09:22:43;;;;;;;;;;;;;;;20.71;36.99;98958.02;105442;1305;60455;-79
2022/04/01 09:25:09;;;;;;;;;;;;;;;20.72;36.93;98955.86;105214;1305;59557;-79
2022/04/01 09:27:53;;;;;;;;;;;;;;;20.72;36.95;98952.27;105212;1305;59959;-79
2022/04/01 09:30:20;;;;;;;;;;;;;;;20.73;37.08;98951.43;105338;1305;61469;-79
2022/04/01 09:32:46;;;;;;;;;;;;;;;20.74;37.09;98952.61;104538;1305;61561;-79
2022/04/01 09:35:12;;;;;;;;;;;;;;;20.74;36.85;98948.07;104402;1305;61292;-80
2022/04/01 09:37:41;;;;;;;;;;;;;;;20.75;37.00;98943.34;104370;1305;75026;-81
2022/04/01 09:40:10;;;;;;;;;;;;;;;20.75;37.04;98942.98;104214;1305;61240;-83
2022/04/01 09:42:37;;;;;;;;;;;;;;;20.75;36.88;98938.90;104256;1305;61294;-81
2022/04/01 09:45:03;;;;;;;;;;;;;;;20.75;36.78;98937.42;104866;1305;72694;-80
2022/04/01 09:47:37;;;;;;;;;;;;;;;20.76;37.12;98937.75;104179;1305;75895;-80
2022/04/01 09:50:09;;;;;;;;;;;;;;;20.76;36.80;98943.95;104143;1306;61331;-80
2022/04/01 09:52:36;;;;;;;;;;;;;;;20.76;36.85;98938.66;104284;1307;61879;-82
2022/04/01 09:55:01;;;;;;;;;;;;;;;20.76;36.96;98927.70;104205;1306;73390;-80
2022/04/01 09:57:28;;;;;;;;;;;;;;;20.78;37.11;98929.32;103973;1305;61052;-80
2022/04/01 09:59:54;;;;;;;;;;;;;;;20.79;36.95;98927.60;104340;1305;61254;-79
2022/04/01 10:02:20;;;;;;;;;;;;;;;20.80;36.93;98929.31;104317;1305;59602;-80
2022/04/01 10:04:45;;;;;;;;;;;;;;;20.82;36.83;98937.55;104568;1305;61387;-79
2022/04/01 10:07:12;;;;;;;;;;;;;;;20.83;36.73;98924.92;104691;1305;61342;-81
2022/04/01 10:09:38;;;;;;;;;;;;;;;20.83;36.53;98913.29;104675;1305;61395;-79
2022/04/01 10:12:06;;;;;;;;;;;;;;;20.83;36.42;98916.45;104247;1305;61269;-81
2022/04/01 10:14:32;;;;;;;;;;;;;;;20.83;36.47;98916.84;104127;1305;61185;-81
2022/04/01 10:17:00;;;;;;;;;;;;;;;20.83;36.46;98913.95;104261;1306;61292;-80
2022/04/01 10:19:27;;;;;;;;;;;;;;;20.83;36.76;98910.26;104273;1303;61171;-80
2022/04/01 10:21:53;;;;;;;;;;;;;;;20.83;36.82;98900.52;104282;1306;60528;-80
2022/04/01 10:24:28;;;;;;;;;;;;;;;20.84;37.06;98898.31;104273;1304;61379;-79
2022/04/01 10:27:02;;;;;;;;;;;;;;;20.84;37.08;98896.19;104391;1305;75786;-81
2022/04/01 10:29:28;;;;;;;;;;;;;;;20.83;36.84;98892.48;104269;1305;61933;-81
2022/04/01 10:31:53;;;;;;;;;;;;;;;20.83;36.92;98892.33;104435;1305;59694;-80
2022/04/01 10:34:21;;;;;;;;;;;;;;;20.83;36.96;98879.14;104374;1305;61282;-81
2022/04/01 10:36:54;;;;;;;;;;;;;;;20.84;37.16;98876.91;105156;1305;59674;-81
2022/04/01 10:39:20;;;;;;;;;;;;;;;20.84;36.98;98869.52;105449;1305;59378;-81
2022/04/01 10:42:04;;;;;;;;;;;;;;;20.84;37.10;98867.00;105394;1305;59503;-81
2022/04/01 10:44:48;;;;;;;;;;;;;;;20.85;36.99;98864.92;105364;1304;73044;-80
2022/04/01 10:47:14;;;;;;;;;;;;;;;20.85;37.07;98859.37;105474;1304;75193;-80
2022/04/01 10:52:23;;;;;;;;;;;;;;;20.89;37.36;98854.42;105127;1305;59767;-80
2022/04/01 10:54:49;;;;;;;;;;;;;;;20.90;37.31;98846.17;105178;1305;59589;-80
2022/04/01 10:57:30;;;;;;;;;;;;;;;20.92;37.27;98841.88;105191;1308;59247;-81
2022/04/01 11:00:00;;;;;;;;;;;;;;;20.93;37.25;98837.34;105291;1305;60491;-80
2022/04/01 11:02:25;;;;;;;;;;;;;;;20.93;37.34;98825.31;105453;1305;60442;-80
2022/04/01 11:04:51;;;;;;;;;;;;;;;20.94;37.34;98827.91;105568;1305;59063;-80
2022/04/01 11:07:23;;;;;;;;;;;;;;;20.95;37.10;98821.80;105484;1305;59220;-81
2022/04/01 11:09:51;;;;;;;;;;;;;;;20.95;37.13;98823.73;105477;1305;60079;-81
2022/04/01 11:17:21;;;;;;;;;;;;;;;20.97;37.31;98806.55;105580;1305;76267;-80
2022/04/01 11:20:03;;;;;;;;;;;;;;;20.98;37.00;98810.69;105540;1304;59457;-80
2022/04/01 11:22:41;;;;;;;;;;;;;;;20.99;36.98;98812.04;105185;1305;59447;-83
2022/04/01 11:25:20;;;;;;;;;;;;;;;21.01;36.77;98803.48;104612;1305;73005;-81
2022/04/01 11:27:53;;;;;;;;;;;;;;;21.01;36.91;98805.09;104391;1306;74115;-85
2022/04/01 11:30:42;;;;;;;;;;;;;;;21.00;36.62;98801.40;104409;1305;61371;-82
2022/04/01 11:33:12;;;;;;;;;;;;;;;20.99;36.54;98790.61;104427;1306;61242;-82
2022/04/01 11:35:59;;;;;;;;;;;;;;;20.99;36.73;98787.05;104658;1305;71897;-80
2022/04/01 11:38:26;;;;;;;;;;;;;;;20.99;36.21;98787.08;104646;1305;75615;-82
2022/04/01 11:40:56;;;;;;;;;;;;;;;20.98;36.37;98774.97;104474;1305;62311;-82
2022/04/01 11:43:22;;;;;;;;;;;;;;;20.99;36.13;98767.23;104439;1308;61177;-80
2022/04/01 11:45:57;;;;;;;;;;;;;;;20.99;36.05;98764.84;104523;1305;73736;-82
2022/04/01 11:48:35;;;;;;;;;;;;;;;20.99;35.99;98756.80;104549;1304;74357;-82
2022/04/01 11:51:03;;;;;;;;;;;;;;;20.99;35.91;98755.91;104719;1305;61215;-80
2022/04/01 11:53:30;;;;;;;;;;;;;;;20.99;35.96;98752.74;104447;1305;61180;-81
2022/04/01 11:55:56;;;;;;;;;;;;;;;20.97;35.95;98746.60;104398;1308;74033;-81
2022/04/01 11:58:25;;;;;;;;;;;;;;;20.97;35.92;98744.55;104588;1306;61298;-81
2022/04/01 12:00:56;;;;;;;;;;;;;;;20.97;35.97;98742.67;104594;1305;61103;-81
2022/04/01 12:03:25;;;;;;;;;;;;;;;20.96;35.66;98731.70;104551;1305;61259;-84
2022/04/01 12:05:52;;;;;;;;;;;;;;;20.96;35.81;98736.23;104715;1305;72169;-82
2022/04/01 12:11:11;;;;;;;;;;;;;;;20.99;35.55;98725.35;104620;1305;61278;-83
2022/04/01 12:13:53;;;;;;;;;;;;;;;21.00;35.68;98715.27;104747;1305;61201;-80
2022/04/01 12:16:40;;;;;;;;;;;;;;;20.99;35.62;98709.27;104476;1307;72786;-82
2022/04/01 12:19:06;;;;;;;;;;;;;;;20.99;35.24;98704.59;104589;1305;74780;-84
2022/04/01 12:21:34;;;;;;;;;;;;;;;21.00;35.36;98703.06;104457;1305;61186;-80
2022/04/01 12:24:07;;;;;;;;;;;;;;;20.99;35.37;98711.52;104463;1305;60519;-82
2022/04/01 12:26:44;;;;;;;;;;;;;;;20.98;35.29;98716.66;104440;1305;74017;-81
2022/04/01 12:29:24;;;;;;;;;;;;;;;20.97;35.43;98719.63;104430;1305;74856;-81
2022/04/01 12:31:54;;;;;;;;;;;;;;;20.96;35.40;98707.90;104593;1305;61471;-80
2022/04/01 12:34:20;;;;;;;;;;;;;;;20.96;35.40;98705.82;104389;1305;61444;-81
2022/04/01 12:36:54;;;;;;;;;;;;;;;20.95;35.70;98705.19;104486;1305;72599;-80
2022/04/01 12:39:27;;;;;;;;;;;;;;;20.95;35.58;98704.88;104476;1305;75882;-80
2022/04/01 12:42:00;;;;;;;;;;;;;;;20.94;35.63;98707.98;104424;1305;61289;-83
2022/04/01 12:44:30;;;;;;;;;;;;;;;20.93;35.70;98709.16;104748;1305;61298;-81
2022/04/01 12:46:58;;;;;;;;;;;;;;;20.92;35.75;98711.91;104602;1306;73387;-81
2022/04/01 12:49:27;;;;;;;;;;;;;;;20.92;35.89;98715.48;104577;1305;75810;-82
2022/04/01 12:52:05;;;;;;;;;;;;;;;20.91;35.90;98718.46;104571;1306;61166;-82
2022/04/01 12:54:33;;;;;;;;;;;;;;;20.89;35.88;98731.47;104574;1307;61216;-86
2022/04/01 12:57:15;;;;;;;;;;;;;;;20.88;35.88;98735.62;104667;1305;73302;-83
2022/04/01 12:59:42;;;;;;;;;;;;;;;20.88;35.88;98762.77;104535;1305;61811;-78
2022/04/01 13:02:12;;;;;;;;;;;;;;;20.87;36.08;98782.88;104549;1305;61274;-83
2022/04/01 13:04:40;;;;;;;;;;;;;;;20.86;35.96;98813.38;104659;1306;61653;-81
2022/04/01 13:07:07;;;;;;;;;;;;;;;20.86;36.01;98839.66;104807;1305;74085;-85
2022/04/01 13:10:06;;;;;;;;;;;;;;;20.85;36.01;98862.25;104578;1306;74741;-81
2022/04/01 13:12:39;;;;;;;;;;;;;;;20.85;36.13;98883.96;104379;1311;61430;-85
2022/04/01 13:15:15;;;;;;;;;;;;;;;20.83;36.28;98900.88;104350;1311;61444;-87
2022/04/01 13:18:03;;;;;;;;;;;;;;;;;;;;;
2022/04/01 13:20:38;;;;;;;;;;;;;;;20.81;36.21;98847.20;104253;1313;74846;-83
2022/04/01 13:23:22;;;;;;;;;;;;;;;20.80;36.17;98842.73;104310;1311;61248;-79
2022/04/01 13:25:49;;;;;;;;;;;;;;;20.79;36.34;98844.07;104321;1311;61305;-83
2022/04/01 13:28:23;;;;;;;;;;;;;;;20.79;36.30;98848.45;104316;1311;73837;-83
2022/04/01 13:30:53;;;;;;;;;;;;;;;20.78;36.41;98865.84;104243;1311;74784;-80
2022/04/01 13:33:19;;;;;;;;;;;;;;;20.78;36.33;98856.21;104226;1312;61283;-82
2022/04/01 13:35:52;;;;;;;;;;;;;;;20.77;36.12;98845.89;104101;1311;61210;-82
2022/04/01 13:38:18;;;;;;;;;;;;;;;20.77;36.58;98846.96;104160;1313;73872;-80
2022/04/01 13:40:53;;;;;;;;;;;;;;;20.77;36.46;98850.91;104297;1311;61422;-82
2022/04/01 13:43:19;;;;;;;;;;;;;;;20.77;36.30;98844.30;104369;1311;61303;-84
2022/04/01 13:45:50;;;;;;;;;;;;;;;20.77;36.55;98838.57;104328;1313;61297;-79